Kalamazoo METAR

KAZO 311253Z 35003KT 10SM CLR 17/13 A3006 RMK AO2 SLP176 T01720128

Kalamazoo TAF

TAF KAZO 311144Z 3112/0112 23006KT P6SM SCT250 FM311700 26009KT P6SM SCT250 FM010300 25005KT P6SM BKN080 FM011100 31006KT P6SM BKN030